Aérodrome :
LOGIN :

S'inscrire | Disclaimer

   EN    FR    IT 

 










Légende :    VFR   VFR Marginal   IFR   IFR Intensif   IFR Très Intensif
Visi : 
Plafond : 
>= 8 km
>= 3000ft
5 à 8 km
1000 à 3000 ft
1500m à 5 km
500 à 1000 ft
800 à 1500m
200 à 500 ft
< 800m
< 200 ft
Symboles :   Orages  Brouillard  Fortes neiges  Fortes précipitations  Vent > 20 kt
SIGMETs :   Divers  Orages  Givrage  Turbulence  Onde Orograph.  Cendres Volcan.







- Altitude de l'aérodrome : 266 ft
- Code IATA : NCL
- Voir les cartes d'approche


EGNT - Newcastle

DERNIER METAR :
  • 211150Z 12007KT 080V150 9999 VCSH FEW020 05/03 Q1013

METARs EXPIRÉS :
  • 211120Z 12013KT 9999 VCSH FEW010 BKN045 04/02 Q1013
  • 211050Z 11009KT 080V150 9999 VCSH SCT010 04/03 Q1013
  • 211020Z 12008KT 100V170 9999 VCSH SCT010 04/03 Q1013
  • 210950Z 14009KT 090V190 9999 VCSH SCT010 BKN014 04/03 Q1012
  • 210920Z 12011KT 080V150 7000 VCSH SCT008 BKN015 05/04 Q1012

TAF TAF EGNT
Valide du 21 à 12h jusqu'au 22 à 12h UTC


211107Z 2112/2212 13009KT 9999 SCT010
PROB30
TEMPO 2116/2203 9000
TEMPO 2203/2212 7000 RA BKN008
PROB30
TEMPO 2205/2212 4000 +RA BKN004
ATIS : +44 191 214 3400
Pas de NOTAMs connus pour ce terrain.



MET'MAP, la Météo Aéronautique d'un coup d'oeil ! - Copyright ORBIFLY Décembre 2007 - Disclaimer

ORBIFLY MET'MAP TEAM :

Programmation & Développement : Alexandra Zaïnal
Conception & Développement : Baudouin d'Aumeries
Co-Programmation & Développement : Marc-Olivier Méhu
Soutien technique & logistique : Manuel Goepfert

Contact : metmap@orbifly.com




SOURCES & CREDITS :

   NOAA